Details for EasyJet at LPPT




Go Back


Latest METAR
Local Time

LPPT 250430Z 20003KT 150V220 9999 FEW006 13/13 Q1012

25/05/2018, 06:01:17

Description
Results
EasyJet Logo
Number of Pilots based at LPPT
0 Pilots Based here
Number of EasyJet Flights Departed from LPPT
4 Flights Departed
Number of EasyJet Flights Arrived at LPPT
6 Flights Arrived
Number of EasyJet Schedules Departing from LPPT
130 Schedules
Number of EasyJet Schedules Arriving at LPPT
126 Schedules
Number of EasyJet Schedules Departing from LPPT availible today
43 Schedules Today
Number of EasyJet Schedules Arriving at LPPT availible today
43 Schedules Today
Average Landing Rate at LPPT
-226 fpm
EasyJet Average Landing Rate at LPPT
-187 fpm
Total Fuel Purchased at LPPT by EasyJet
15,010.73 kgs / 33,092.66 lbs

Pilots Based at LPPT


Pilot ID
Pilot Name
Pilot Rank
No. of Flights
No. of Flying Hours
There are no pilots assigned to this hub!   Will you be the first?
Content